sensor_id;sensor_type;location;lat;lon;timestamp;temperature;humidity
69436;SHT31;56625;54.322;18.582;2023-01-29T00:00:08;0.89;75.51
69436;SHT31;56625;54.322;18.582;2023-01-29T00:02:57;0.89;75.62
69436;SHT31;56625;54.322;18.582;2023-01-29T00:05:26;0.90;75.56
69436;SHT31;56625;54.322;18.582;2023-01-29T00:07:55;0.92;75.56
69436;SHT31;56625;54.322;18.582;2023-01-29T00:10:24;0.94;75.78
69436;SHT31;56625;54.322;18.582;2023-01-29T00:12:52;0.97;75.91
69436;SHT31;56625;54.322;18.582;2023-01-29T00:15:21;1.01;75.97
69436;SHT31;56625;54.322;18.582;2023-01-29T00:17:49;1.04;75.96
69436;SHT31;56625;54.322;18.582;2023-01-29T00:20:17;1.07;75.78
69436;SHT31;56625;54.322;18.582;2023-01-29T00:22:45;1.10;75.67
69436;SHT31;56625;54.322;18.582;2023-01-29T00:25:13;1.14;75.55
69436;SHT31;56625;54.322;18.582;2023-01-29T00:27:41;1.16;75.50
69436;SHT31;56625;54.322;18.582;2023-01-29T00:30:11;1.17;75.57
69436;SHT31;56625;54.322;18.582;2023-01-29T00:32:40;1.18;75.67
69436;SHT31;56625;54.322;18.582;2023-01-29T00:35:08;1.18;75.83
69436;SHT31;56625;54.322;18.582;2023-01-29T00:37:37;1.19;76.03
69436;SHT31;56625;54.322;18.582;2023-01-29T00:40:05;1.19;76.16
69436;SHT31;56625;54.322;18.582;2023-01-29T00:42:33;1.19;76.28
69436;SHT31;56625;54.322;18.582;2023-01-29T00:45:20;1.17;76.40
69436;SHT31;56625;54.322;18.582;2023-01-29T00:47:48;1.18;76.48
69436;SHT31;56625;54.322;18.582;2023-01-29T00:50:16;1.19;76.63
69436;SHT31;56625;54.322;18.582;2023-01-29T00:52:45;1.18;76.90
69436;SHT31;56625;54.322;18.582;2023-01-29T00:55:15;1.19;77.12
69436;SHT31;56625;54.322;18.582;2023-01-29T00:57:43;1.18;77.55
69436;SHT31;56625;54.322;18.582;2023-01-29T01:00:12;1.17;77.93
69436;SHT31;56625;54.322;18.582;2023-01-29T01:02:44;1.17;78.19
69436;SHT31;56625;54.322;18.582;2023-01-29T01:05:31;1.16;78.33
69436;SHT31;56625;54.322;18.582;2023-01-29T01:07:59;1.16;78.58
69436;SHT31;56625;54.322;18.582;2023-01-29T01:10:29;1.17;78.86
69436;SHT31;56625;54.322;18.582;2023-01-29T01:13:00;1.15;79.32
69436;SHT31;56625;54.322;18.582;2023-01-29T01:15:34;1.15;79.46
69436;SHT31;56625;54.322;18.582;2023-01-29T01:18:05;1.14;80.04
69436;SHT31;56625;54.322;18.582;2023-01-29T01:20:33;1.11;80.59
69436;SHT31;56625;54.322;18.582;2023-01-29T01:23:03;1.09;81.27
69436;SHT31;56625;54.322;18.582;2023-01-29T01:25:31;1.03;82.42
69436;SHT31;56625;54.322;18.582;2023-01-29T01:28:00;0.99;83.09
69436;SHT31;56625;54.322;18.582;2023-01-29T01:30:28;0.95;83.55
69436;SHT31;56625;54.322;18.582;2023-01-29T01:32:56;0.92;83.93
69436;SHT31;56625;54.322;18.582;2023-01-29T01:35:24;0.89;84.54
69436;SHT31;56625;54.322;18.582;2023-01-29T01:37:52;0.86;85.11
69436;SHT31;56625;54.322;18.582;2023-01-29T01:40:20;0.84;85.40
69436;SHT31;56625;54.322;18.582;2023-01-29T01:42:53;0.84;85.79
69436;SHT31;56625;54.322;18.582;2023-01-29T01:45:31;0.81;86.15
69436;SHT31;56625;54.322;18.582;2023-01-29T01:48:04;0.83;86.27
69436;SHT31;56625;54.322;18.582;2023-01-29T01:50:48;0.82;86.50
69436;SHT31;56625;54.322;18.582;2023-01-29T01:53:27;0.81;86.80
69436;SHT31;56625;54.322;18.582;2023-01-29T01:56:01;0.80;86.98
69436;SHT31;56625;54.322;18.582;2023-01-29T01:58:36;0.80;87.11
69436;SHT31;56625;54.322;18.582;2023-01-29T02:01:11;0.79;87.25
69436;SHT31;56625;54.322;18.582;2023-01-29T02:03:41;0.78;87.23
69436;SHT31;56625;54.322;18.582;2023-01-29T02:06:40;0.77;87.29
69436;SHT31;56625;54.322;18.582;2023-01-29T02:09:30;0.76;87.35
69436;SHT31;56625;54.322;18.582;2023-01-29T02:12:07;0.75;87.45
69436;SHT31;56625;54.322;18.582;2023-01-29T02:14:40;0.74;87.39
69436;SHT31;56625;54.322;18.582;2023-01-29T02:17:10;0.73;87.56
69436;SHT31;56625;54.322;18.582;2023-01-29T02:25:46;0.70;87.80
69436;SHT31;56625;54.322;18.582;2023-01-29T02:34:13;0.78;87.73
69436;SHT31;56625;54.322;18.582;2023-01-29T02:37:24;0.82;87.62
69436;SHT31;56625;54.322;18.582;2023-01-29T02:40:14;0.83;87.66
69436;SHT31;56625;54.322;18.582;2023-01-29T02:42:54;0.83;87.60
69436;SHT31;56625;54.322;18.582;2023-01-29T02:48:20;0.87;87.66
69436;SHT31;56625;54.322;18.582;2023-01-29T02:50:54;0.88;87.58
69436;SHT31;56625;54.322;18.582;2023-01-29T02:53:31;0.89;87.56
69436;SHT31;56625;54.322;18.582;2023-01-29T02:56:14;0.91;87.51
69436;SHT31;56625;54.322;18.582;2023-01-29T02:58:52;0.94;87.45
69436;SHT31;56625;54.322;18.582;2023-01-29T03:01:35;0.96;87.57
69436;SHT31;56625;54.322;18.582;2023-01-29T03:04:15;1.02;87.53
69436;SHT31;56625;54.322;18.582;2023-01-29T03:06:52;1.05;87.42
69436;SHT31;56625;54.322;18.582;2023-01-29T03:09:33;1.07;87.50
69436;SHT31;56625;54.322;18.582;2023-01-29T03:12:12;1.09;87.47
69436;SHT31;56625;54.322;18.582;2023-01-29T03:15:01;1.13;87.37
69436;SHT31;56625;54.322;18.582;2023-01-29T03:17:48;1.16;87.41
69436;SHT31;56625;54.322;18.582;2023-01-29T03:20:36;1.18;87.38
69436;SHT31;56625;54.322;18.582;2023-01-29T03:23:21;1.19;87.34
69436;SHT31;56625;54.322;18.582;2023-01-29T03:26:14;1.19;87.43
69436;SHT31;56625;54.322;18.582;2023-01-29T03:29:05;1.20;87.50
69436;SHT31;56625;54.322;18.582;2023-01-29T03:31:54;1.19;87.64
69436;SHT31;56625;54.322;18.582;2023-01-29T03:34:33;1.19;87.83
69436;SHT31;56625;54.322;18.582;2023-01-29T03:37:12;1.18;87.91
69436;SHT31;56625;54.322;18.582;2023-01-29T03:39:53;1.17;87.95
69436;SHT31;56625;54.322;18.582;2023-01-29T03:48:17;1.17;87.80
69436;SHT31;56625;54.322;18.582;2023-01-29T03:51:35;1.15;87.81
69436;SHT31;56625;54.322;18.582;2023-01-29T03:54:47;1.16;87.78
69436;SHT31;56625;54.322;18.582;2023-01-29T03:57:41;1.15;87.84
69436;SHT31;56625;54.322;18.582;2023-01-29T04:00:18;1.14;87.79
69436;SHT31;56625;54.322;18.582;2023-01-29T04:03:42;1.14;87.80
69436;SHT31;56625;54.322;18.582;2023-01-29T04:06:08;1.14;87.90
69436;SHT31;56625;54.322;18.582;2023-01-29T04:08:47;1.14;87.92
69436;SHT31;56625;54.322;18.582;2023-01-29T04:11:27;1.15;87.99
69436;SHT31;56625;54.322;18.582;2023-01-29T04:13:57;1.15;87.99
69436;SHT31;56625;54.322;18.582;2023-01-29T04:16:27;1.15;87.95
69436;SHT31;56625;54.322;18.582;2023-01-29T04:19:01;1.16;87.99
69436;SHT31;56625;54.322;18.582;2023-01-29T04:21:30;1.16;87.98
69436;SHT31;56625;54.322;18.582;2023-01-29T04:23:59;1.17;88.00
69436;SHT31;56625;54.322;18.582;2023-01-29T04:26:32;1.17;87.97
69436;SHT31;56625;54.322;18.582;2023-01-29T04:29:19;1.17;87.95
69436;SHT31;56625;54.322;18.582;2023-01-29T04:32:08;1.18;87.86
69436;SHT31;56625;54.322;18.582;2023-01-29T04:34:49;1.20;87.86
69436;SHT31;56625;54.322;18.582;2023-01-29T04:40:09;1.18;87.89
69436;SHT31;56625;54.322;18.582;2023-01-29T04:42:50;1.21;87.83
69436;SHT31;56625;54.322;18.582;2023-01-29T04:45:51;1.22;87.89
69436;SHT31;56625;54.322;18.582;2023-01-29T04:48:41;1.21;87.84
69436;SHT31;56625;54.322;18.582;2023-01-29T05:00:17;1.22;87.74
69436;SHT31;56625;54.322;18.582;2023-01-29T05:02:56;1.22;87.71
69436;SHT31;56625;54.322;18.582;2023-01-29T05:05:27;1.25;87.69
69436;SHT31;56625;54.322;18.582;2023-01-29T05:07:57;1.26;87.64
69436;SHT31;56625;54.322;18.582;2023-01-29T05:10:26;1.27;87.59
69436;SHT31;56625;54.322;18.582;2023-01-29T05:12:59;1.29;87.58
69436;SHT31;56625;54.322;18.582;2023-01-29T05:15:34;1.30;87.55
69436;SHT31;56625;54.322;18.582;2023-01-29T05:18:11;1.32;87.48
69436;SHT31;56625;54.322;18.582;2023-01-29T05:20:40;1.33;87.50
69436;SHT31;56625;54.322;18.582;2023-01-29T05:23:14;1.34;87.49
69436;SHT31;56625;54.322;18.582;2023-01-29T05:25:47;1.36;87.55
69436;SHT31;56625;54.322;18.582;2023-01-29T05:28:18;1.40;87.55
69436;SHT31;56625;54.322;18.582;2023-01-29T05:30:47;1.45;87.51
69436;SHT31;56625;54.322;18.582;2023-01-29T05:33:25;1.48;87.60
69436;SHT31;56625;54.322;18.582;2023-01-29T05:35:58;1.53;87.53
69436;SHT31;56625;54.322;18.582;2023-01-29T05:38:26;1.59;87.35
69436;SHT31;56625;54.322;18.582;2023-01-29T05:40:57;1.61;87.22
69436;SHT31;56625;54.322;18.582;2023-01-29T05:43:26;1.64;87.20
69436;SHT31;56625;54.322;18.582;2023-01-29T05:45:54;1.67;87.20
69436;SHT31;56625;54.322;18.582;2023-01-29T05:48:26;1.68;87.22
69436;SHT31;56625;54.322;18.582;2023-01-29T05:51:02;1.70;87.30
69436;SHT31;56625;54.322;18.582;2023-01-29T05:53:31;1.70;87.40
69436;SHT31;56625;54.322;18.582;2023-01-29T05:56:00;1.70;87.51
69436;SHT31;56625;54.322;18.582;2023-01-29T05:58:30;1.70;87.63
69436;SHT31;56625;54.322;18.582;2023-01-29T06:01:13;1.71;87.70
69436;SHT31;56625;54.322;18.582;2023-01-29T06:03:48;1.71;87.86
69436;SHT31;56625;54.322;18.582;2023-01-29T06:06:16;1.72;87.94
69436;SHT31;56625;54.322;18.582;2023-01-29T06:08:44;1.74;88.02
69436;SHT31;56625;54.322;18.582;2023-01-29T06:11:13;1.75;88.10
69436;SHT31;56625;54.322;18.582;2023-01-29T06:13:44;1.77;88.10
69436;SHT31;56625;54.322;18.582;2023-01-29T06:16:13;1.80;88.06
69436;SHT31;56625;54.322;18.582;2023-01-29T06:18:42;1.82;88.11
69436;SHT31;56625;54.322;18.582;2023-01-29T06:21:11;1.83;88.35
69436;SHT31;56625;54.322;18.582;2023-01-29T06:23:40;1.83;88.41
69436;SHT31;56625;54.322;18.582;2023-01-29T06:26:09;1.84;88.59
69436;SHT31;56625;54.322;18.582;2023-01-29T06:28:41;1.85;88.63
69436;SHT31;56625;54.322;18.582;2023-01-29T06:31:10;1.89;88.54
69436;SHT31;56625;54.322;18.582;2023-01-29T06:33:58;1.94;88.42
69436;SHT31;56625;54.322;18.582;2023-01-29T06:36:26;1.96;88.40
69436;SHT31;56625;54.322;18.582;2023-01-29T06:38:54;2.00;88.40
69436;SHT31;56625;54.322;18.582;2023-01-29T06:41:22;2.05;88.42
69436;SHT31;56625;54.322;18.582;2023-01-29T06:43:52;2.07;88.37
69436;SHT31;56625;54.322;18.582;2023-01-29T06:46:20;2.09;88.38
69436;SHT31;56625;54.322;18.582;2023-01-29T06:48:47;2.13;88.41
69436;SHT31;56625;54.322;18.582;2023-01-29T06:51:15;2.15;88.56
69436;SHT31;56625;54.322;18.582;2023-01-29T06:53:44;2.18;88.59
69436;SHT31;56625;54.322;18.582;2023-01-29T06:56:13;2.21;88.60
69436;SHT31;56625;54.322;18.582;2023-01-29T06:58:41;2.23;88.67
69436;SHT31;56625;54.322;18.582;2023-01-29T07:01:10;2.26;88.59
69436;SHT31;56625;54.322;18.582;2023-01-29T07:03:59;2.30;88.63
69436;SHT31;56625;54.322;18.582;2023-01-29T07:06:28;2.31;88.64
69436;SHT31;56625;54.322;18.582;2023-01-29T07:08:57;2.33;88.69
69436;SHT31;56625;54.322;18.582;2023-01-29T07:11:25;2.35;88.62
69436;SHT31;56625;54.322;18.582;2023-01-29T07:13:53;2.37;88.56
69436;SHT31;56625;54.322;18.582;2023-01-29T07:16:20;2.38;88.49
69436;SHT31;56625;54.322;18.582;2023-01-29T07:18:49;2.40;88.40
69436;SHT31;56625;54.322;18.582;2023-01-29T07:21:17;2.43;88.36
69436;SHT31;56625;54.322;18.582;2023-01-29T07:23:48;2.45;88.27
69436;SHT31;56625;54.322;18.582;2023-01-29T07:26:19;2.46;88.19
69436;SHT31;56625;54.322;18.582;2023-01-29T07:28:47;2.47;88.20
69436;SHT31;56625;54.322;18.582;2023-01-29T07:31:15;2.49;88.20
69436;SHT31;56625;54.322;18.582;2023-01-29T07:33:43;2.50;88.14
69436;SHT31;56625;54.322;18.582;2023-01-29T07:36:11;2.49;88.11
69436;SHT31;56625;54.322;18.582;2023-01-29T07:38:40;2.50;88.10
69436;SHT31;56625;54.322;18.582;2023-01-29T07:41:09;2.52;88.08
69436;SHT31;56625;54.322;18.582;2023-01-29T07:43:38;2.52;87.95
69436;SHT31;56625;54.322;18.582;2023-01-29T07:46:06;2.54;87.87
69436;SHT31;56625;54.322;18.582;2023-01-29T07:48:35;2.57;87.76
69436;SHT31;56625;54.322;18.582;2023-01-29T07:51:03;2.59;87.71
69436;SHT31;56625;54.322;18.582;2023-01-29T07:53:32;2.61;87.68
69436;SHT31;56625;54.322;18.582;2023-01-29T07:56:00;2.65;87.56
69436;SHT31;56625;54.322;18.582;2023-01-29T07:58:28;2.67;87.46
69436;SHT31;56625;54.322;18.582;2023-01-29T08:00:57;2.72;87.37
69436;SHT31;56625;54.322;18.582;2023-01-29T08:03:25;2.73;87.22
69436;SHT31;56625;54.322;18.582;2023-01-29T08:05:52;2.76;87.13
69436;SHT31;56625;54.322;18.582;2023-01-29T08:08:20;2.80;87.05
69436;SHT31;56625;54.322;18.582;2023-01-29T08:10:48;2.83;86.95
69436;SHT31;56625;54.322;18.582;2023-01-29T08:13:16;2.86;86.83
69436;SHT31;56625;54.322;18.582;2023-01-29T08:15:44;2.90;86.77
69436;SHT31;56625;54.322;18.582;2023-01-29T08:18:13;2.93;86.66
69436;SHT31;56625;54.322;18.582;2023-01-29T08:20:41;2.93;86.58
69436;SHT31;56625;54.322;18.582;2023-01-29T08:23:13;2.95;86.57
69436;SHT31;56625;54.322;18.582;2023-01-29T08:25:43;2.97;86.53
69436;SHT31;56625;54.322;18.582;2023-01-29T08:28:14;2.98;86.55
69436;SHT31;56625;54.322;18.582;2023-01-29T08:30:57;3.00;86.52
69436;SHT31;56625;54.322;18.582;2023-01-29T08:33:25;3.00;86.57
69436;SHT31;56625;54.322;18.582;2023-01-29T08:36:06;2.99;86.80
69436;SHT31;56625;54.322;18.582;2023-01-29T08:38:35;2.97;87.00
69436;SHT31;56625;54.322;18.582;2023-01-29T08:41:03;2.98;87.11
69436;SHT31;56625;54.322;18.582;2023-01-29T08:43:31;3.01;87.12
69436;SHT31;56625;54.322;18.582;2023-01-29T08:46:03;3.06;87.06
69436;SHT31;56625;54.322;18.582;2023-01-29T08:48:33;3.12;87.03
69436;SHT31;56625;54.322;18.582;2023-01-29T08:51:01;3.14;86.95
69436;SHT31;56625;54.322;18.582;2023-01-29T08:53:31;3.17;87.01
69436;SHT31;56625;54.322;18.582;2023-01-29T08:55:59;3.17;86.99
69436;SHT31;56625;54.322;18.582;2023-01-29T08:58:27;3.18;87.01
69436;SHT31;56625;54.322;18.582;2023-01-29T09:00:55;3.19;86.93
69436;SHT31;56625;54.322;18.582;2023-01-29T09:03:24;3.19;86.72
69436;SHT31;56625;54.322;18.582;2023-01-29T09:05:51;3.19;86.71
69436;SHT31;56625;54.322;18.582;2023-01-29T09:08:19;3.19;86.61
69436;SHT31;56625;54.322;18.582;2023-01-29T09:10:47;3.19;86.51
69436;SHT31;56625;54.322;18.582;2023-01-29T09:13:15;3.19;86.39
69436;SHT31;56625;54.322;18.582;2023-01-29T09:15:43;3.21;86.43
69436;SHT31;56625;54.322;18.582;2023-01-29T09:18:12;3.24;86.41
69436;SHT31;56625;54.322;18.582;2023-01-29T09:20:40;3.26;86.26
69436;SHT31;56625;54.322;18.582;2023-01-29T09:23:08;3.28;86.18
69436;SHT31;56625;54.322;18.582;2023-01-29T09:25:37;3.28;85.99
69436;SHT31;56625;54.322;18.582;2023-01-29T09:28:05;3.30;85.98
69436;SHT31;56625;54.322;18.582;2023-01-29T09:30:33;3.33;85.80
69436;SHT31;56625;54.322;18.582;2023-01-29T09:33:04;3.34;85.73
69436;SHT31;56625;54.322;18.582;2023-01-29T09:35:33;3.33;85.67
69436;SHT31;56625;54.322;18.582;2023-01-29T09:38:02;3.34;85.63
69436;SHT31;56625;54.322;18.582;2023-01-29T09:48:47;3.38;85.42
69436;SHT31;56625;54.322;18.582;2023-01-29T09:51:36;3.37;85.32
69436;SHT31;56625;54.322;18.582;2023-01-29T09:57:01;3.38;85.40
69436;SHT31;56625;54.322;18.582;2023-01-29T09:59:30;3.39;85.44
69436;SHT31;56625;54.322;18.582;2023-01-29T10:02:03;3.39;85.46
69436;SHT31;56625;54.322;18.582;2023-01-29T10:16:43;3.36;85.80
69436;SHT31;56625;54.322;18.582;2023-01-29T10:19:44;3.37;85.77
69436;SHT31;56625;54.322;18.582;2023-01-29T10:26:01;3.39;85.78
69436;SHT31;56625;54.322;18.582;2023-01-29T10:31:31;3.39;85.66
69436;SHT31;56625;54.322;18.582;2023-01-29T10:37:17;3.37;85.92
69436;SHT31;56625;54.322;18.582;2023-01-29T10:39:50;3.36;85.98
69436;SHT31;56625;54.322;18.582;2023-01-29T10:42:33;3.36;85.90
69436;SHT31;56625;54.322;18.582;2023-01-29T10:45:18;3.36;85.93
69436;SHT31;56625;54.322;18.582;2023-01-29T10:54:07;3.52;85.73
69436;SHT31;56625;54.322;18.582;2023-01-29T11:00:32;3.56;85.81
69436;SHT31;56625;54.322;18.582;2023-01-29T11:03:11;3.63;85.49
69436;SHT31;56625;54.322;18.582;2023-01-29T11:11:45;3.76;84.98
69436;SHT31;56625;54.322;18.582;2023-01-29T11:14:27;3.79;84.69
69436;SHT31;56625;54.322;18.582;2023-01-29T11:17:16;3.81;84.45
69436;SHT31;56625;54.322;18.582;2023-01-29T11:19:54;3.84;84.39
69436;SHT31;56625;54.322;18.582;2023-01-29T11:22:23;3.86;84.40
69436;SHT31;56625;54.322;18.582;2023-01-29T11:25:07;3.91;84.29
69436;SHT31;56625;54.322;18.582;2023-01-29T11:27:56;3.91;83.89
69436;SHT31;56625;54.322;18.582;2023-01-29T11:30:35;3.91;83.85
69436;SHT31;56625;54.322;18.582;2023-01-29T11:33:08;3.95;83.94
69436;SHT31;56625;54.322;18.582;2023-01-29T11:35:46;3.96;83.71
69436;SHT31;56625;54.322;18.582;2023-01-29T11:40:42;3.96;83.83
69436;SHT31;56625;54.322;18.582;2023-01-29T11:45:59;4.00;83.70
69436;SHT31;56625;54.322;18.582;2023-01-29T11:48:40;4.02;83.53
69436;SHT31;56625;54.322;18.582;2023-01-29T11:51:19;4.05;83.53
69436;SHT31;56625;54.322;18.582;2023-01-29T11:53:52;4.05;83.49
69436;SHT31;56625;54.322;18.582;2023-01-29T11:56:33;4.04;83.67
69436;SHT31;56625;54.322;18.582;2023-01-29T11:59:44;4.06;83.77
69436;SHT31;56625;54.322;18.582;2023-01-29T12:02:24;4.05;83.99
69436;SHT31;56625;54.322;18.582;2023-01-29T12:05:02;4.06;84.16
69436;SHT31;56625;54.322;18.582;2023-01-29T12:07:45;4.06;84.25
69436;SHT31;56625;54.322;18.582;2023-01-29T12:10:31;4.04;84.37
69436;SHT31;56625;54.322;18.582;2023-01-29T12:15:36;4.03;84.61
69436;SHT31;56625;54.322;18.582;2023-01-29T12:20:59;4.02;84.67
69436;SHT31;56625;54.322;18.582;2023-01-29T12:23:42;4.00;84.61
69436;SHT31;56625;54.322;18.582;2023-01-29T12:26:31;4.00;84.53
69436;SHT31;56625;54.322;18.582;2023-01-29T12:29:09;3.95;84.56
69436;SHT31;56625;54.322;18.582;2023-01-29T12:34:54;3.93;84.80
69436;SHT31;56625;54.322;18.582;2023-01-29T12:37:36;3.91;84.95
69436;SHT31;56625;54.322;18.582;2023-01-29T12:40:29;3.88;84.85
69436;SHT31;56625;54.322;18.582;2023-01-29T12:43:14;3.83;84.97
69436;SHT31;56625;54.322;18.582;2023-01-29T12:45:46;3.81;85.07
69436;SHT31;56625;54.322;18.582;2023-01-29T12:48:22;3.82;85.23
69436;SHT31;56625;54.322;18.582;2023-01-29T12:51:17;3.84;85.21
69436;SHT31;56625;54.322;18.582;2023-01-29T12:53:59;3.84;85.02
69436;SHT31;56625;54.322;18.582;2023-01-29T12:56:43;3.87;85.08
69436;SHT31;56625;54.322;18.582;2023-01-29T12:59:38;3.88;84.92
69436;SHT31;56625;54.322;18.582;2023-01-29T13:02:35;3.90;84.90
69436;SHT31;56625;54.322;18.582;2023-01-29T13:05:15;3.93;84.88
69436;SHT31;56625;54.322;18.582;2023-01-29T13:07:53;3.92;84.74
69436;SHT31;56625;54.322;18.582;2023-01-29T13:10:41;3.92;84.82
69436;SHT31;56625;54.322;18.582;2023-01-29T13:16:03;3.89;84.70
69436;SHT31;56625;54.322;18.582;2023-01-29T13:18:40;3.88;84.82
69436;SHT31;56625;54.322;18.582;2023-01-29T13:21:28;3.87;84.75
69436;SHT31;56625;54.322;18.582;2023-01-29T13:24:14;3.84;84.77
69436;SHT31;56625;54.322;18.582;2023-01-29T13:26:53;3.83;85.03
69436;SHT31;56625;54.322;18.582;2023-01-29T13:29:26;3.81;84.96
69436;SHT31;56625;54.322;18.582;2023-01-29T13:31:58;3.77;85.02
69436;SHT31;56625;54.322;18.582;2023-01-29T13:34:30;3.76;85.10
69436;SHT31;56625;54.322;18.582;2023-01-29T13:37:08;3.74;85.15
69436;SHT31;56625;54.322;18.582;2023-01-29T13:39:47;3.71;85.37
69436;SHT31;56625;54.322;18.582;2023-01-29T13:42:20;3.69;85.69
69436;SHT31;56625;54.322;18.582;2023-01-29T13:45:16;3.67;85.76
69436;SHT31;56625;54.322;18.582;2023-01-29T13:47:49;3.68;85.83
69436;SHT31;56625;54.322;18.582;2023-01-29T13:50:34;3.68;85.77
69436;SHT31;56625;54.322;18.582;2023-01-29T13:53:08;3.68;85.77
69436;SHT31;56625;54.322;18.582;2023-01-29T13:55:51;3.68;85.97
69436;SHT31;56625;54.322;18.582;2023-01-29T14:00:59;3.65;86.05
69436;SHT31;56625;54.322;18.582;2023-01-29T14:06:11;3.65;86.13
69436;SHT31;56625;54.322;18.582;2023-01-29T14:09:29;3.61;85.94
69436;SHT31;56625;54.322;18.582;2023-01-29T14:12:26;3.58;85.98
69436;SHT31;56625;54.322;18.582;2023-01-29T14:17:23;3.54;86.02
69436;SHT31;56625;54.322;18.582;2023-01-29T14:19:57;3.53;86.07
69436;SHT31;56625;54.322;18.582;2023-01-29T14:22:30;3.49;85.89
69436;SHT31;56625;54.322;18.582;2023-01-29T14:25:02;3.48;85.82
69436;SHT31;56625;54.322;18.582;2023-01-29T14:27:32;3.47;85.83
69436;SHT31;56625;54.322;18.582;2023-01-29T14:30:06;3.45;85.80
69436;SHT31;56625;54.322;18.582;2023-01-29T14:32:40;3.45;85.79
69436;SHT31;56625;54.322;18.582;2023-01-29T14:35:22;3.44;85.72
69436;SHT31;56625;54.322;18.582;2023-01-29T14:38:01;3.47;85.75
69436;SHT31;56625;54.322;18.582;2023-01-29T14:40:33;3.47;85.65
69436;SHT31;56625;54.322;18.582;2023-01-29T14:43:04;3.51;85.61
69436;SHT31;56625;54.322;18.582;2023-01-29T14:45:46;3.51;85.45
69436;SHT31;56625;54.322;18.582;2023-01-29T14:48:36;3.53;85.31
69436;SHT31;56625;54.322;18.582;2023-01-29T14:51:13;3.55;85.27
69436;SHT31;56625;54.322;18.582;2023-01-29T14:56:32;3.57;85.20
69436;SHT31;56625;54.322;18.582;2023-01-29T14:59:11;3.59;85.17
69436;SHT31;56625;54.322;18.582;2023-01-29T15:01:51;3.59;85.10
69436;SHT31;56625;54.322;18.582;2023-01-29T15:04:29;3.59;85.10
69436;SHT31;56625;54.322;18.582;2023-01-29T15:07:14;3.58;84.89
69436;SHT31;56625;54.322;18.582;2023-01-29T15:12:59;3.57;84.80
69436;SHT31;56625;54.322;18.582;2023-01-29T15:15:46;3.59;84.80
69436;SHT31;56625;54.322;18.582;2023-01-29T15:18:38;3.57;84.78
69436;SHT31;56625;54.322;18.582;2023-01-29T15:21:14;3.56;84.77
69436;SHT31;56625;54.322;18.582;2023-01-29T15:23:44;3.55;84.80
69436;SHT31;56625;54.322;18.582;2023-01-29T15:26:18;3.53;84.79
69436;SHT31;56625;54.322;18.582;2023-01-29T15:28:56;3.49;84.76
69436;SHT31;56625;54.322;18.582;2023-01-29T15:31:31;3.48;84.80
69436;SHT31;56625;54.322;18.582;2023-01-29T15:34:03;3.46;84.84
69436;SHT31;56625;54.322;18.582;2023-01-29T15:36:35;3.46;84.85
69436;SHT31;56625;54.322;18.582;2023-01-29T15:39:14;3.46;84.86
69436;SHT31;56625;54.322;18.582;2023-01-29T15:41:43;3.47;84.90
69436;SHT31;56625;54.322;18.582;2023-01-29T15:44:14;3.47;84.84
69436;SHT31;56625;54.322;18.582;2023-01-29T15:46:53;3.48;84.80
69436;SHT31;56625;54.322;18.582;2023-01-29T15:49:30;3.49;84.75
69436;SHT31;56625;54.322;18.582;2023-01-29T15:52:03;3.51;84.72
69436;SHT31;56625;54.322;18.582;2023-01-29T15:54:55;3.53;84.62
69436;SHT31;56625;54.322;18.582;2023-01-29T15:57:29;3.55;84.61
69436;SHT31;56625;54.322;18.582;2023-01-29T16:00:04;3.55;84.60
69436;SHT31;56625;54.322;18.582;2023-01-29T16:02:43;3.58;84.53
69436;SHT31;56625;54.322;18.582;2023-01-29T16:05:15;3.58;84.50
69436;SHT31;56625;54.322;18.582;2023-01-29T16:07:50;3.60;84.41
69436;SHT31;56625;54.322;18.582;2023-01-29T16:10:26;3.60;84.43
69436;SHT31;56625;54.322;18.582;2023-01-29T16:12:59;3.59;84.47
69436;SHT31;56625;54.322;18.582;2023-01-29T16:15:35;3.60;84.50
69436;SHT31;56625;54.322;18.582;2023-01-29T16:18:19;3.59;84.60
69436;SHT31;56625;54.322;18.582;2023-01-29T16:20:55;3.57;84.76
69436;SHT31;56625;54.322;18.582;2023-01-29T16:23:29;3.56;84.95
69436;SHT31;56625;54.322;18.582;2023-01-29T16:26:13;3.54;85.08
69436;SHT31;56625;54.322;18.582;2023-01-29T16:28:48;3.51;85.13
69436;SHT31;56625;54.322;18.582;2023-01-29T16:31:20;3.51;85.27
69436;SHT31;56625;54.322;18.582;2023-01-29T16:34:28;3.50;85.38
69436;SHT31;56625;54.322;18.582;2023-01-29T16:37:28;3.48;85.44
69436;SHT31;56625;54.322;18.582;2023-01-29T16:40:34;3.46;85.64
69436;SHT31;56625;54.322;18.582;2023-01-29T16:51:53;3.40;85.96
69436;SHT31;56625;54.322;18.582;2023-01-29T16:54:44;3.40;86.04
69436;SHT31;56625;54.322;18.582;2023-01-29T16:57:22;3.41;86.10
69436;SHT31;56625;54.322;18.582;2023-01-29T16:59:59;3.40;86.10
69436;SHT31;56625;54.322;18.582;2023-01-29T17:02:35;3.42;86.08
69436;SHT31;56625;54.322;18.582;2023-01-29T17:05:07;3.42;86.09
69436;SHT31;56625;54.322;18.582;2023-01-29T17:07:44;3.42;86.23
69436;SHT31;56625;54.322;18.582;2023-01-29T17:10:15;3.42;86.40
69436;SHT31;56625;54.322;18.582;2023-01-29T17:15:42;3.42;86.73
69436;SHT31;56625;54.322;18.582;2023-01-29T17:18:17;3.42;86.79
69436;SHT31;56625;54.322;18.582;2023-01-29T17:20:49;3.42;86.88
69436;SHT31;56625;54.322;18.582;2023-01-29T17:23:21;3.42;86.91
69436;SHT31;56625;54.322;18.582;2023-01-29T17:25:49;3.42;87.05
69436;SHT31;56625;54.322;18.582;2023-01-29T17:28:21;3.42;87.10
69436;SHT31;56625;54.322;18.582;2023-01-29T17:30:49;3.43;87.10
69436;SHT31;56625;54.322;18.582;2023-01-29T17:33:33;3.43;87.10
69436;SHT31;56625;54.322;18.582;2023-01-29T17:36:12;3.43;87.10
69436;SHT31;56625;54.322;18.582;2023-01-29T17:38:43;3.42;87.10
69436;SHT31;56625;54.322;18.582;2023-01-29T17:43:56;3.39;87.10
69436;SHT31;56625;54.322;18.582;2023-01-29T17:46:25;3.38;87.02
69436;SHT31;56625;54.322;18.582;2023-01-29T17:48:54;3.36;87.00
69436;SHT31;56625;54.322;18.582;2023-01-29T17:51:22;3.36;87.05
69436;SHT31;56625;54.322;18.582;2023-01-29T17:53:51;3.36;87.01
69436;SHT31;56625;54.322;18.582;2023-01-29T17:56:23;3.34;87.02
69436;SHT31;56625;54.322;18.582;2023-01-29T17:58:56;3.30;87.05
69436;SHT31;56625;54.322;18.582;2023-01-29T18:01:23;3.27;87.13
69436;SHT31;56625;54.322;18.582;2023-01-29T18:03:52;3.26;87.20
69436;SHT31;56625;54.322;18.582;2023-01-29T18:06:27;3.24;87.26
69436;SHT31;56625;54.322;18.582;2023-01-29T18:08:56;3.21;87.26
69436;SHT31;56625;54.322;18.582;2023-01-29T18:11:27;3.20;87.21
69436;SHT31;56625;54.322;18.582;2023-01-29T18:13:55;3.18;87.20
69436;SHT31;56625;54.322;18.582;2023-01-29T18:16:24;3.18;87.21
69436;SHT31;56625;54.322;18.582;2023-01-29T18:18:52;3.17;87.20
69436;SHT31;56625;54.322;18.582;2023-01-29T18:21:21;3.17;87.20
69436;SHT31;56625;54.322;18.582;2023-01-29T18:23:49;3.16;87.19
69436;SHT31;56625;54.322;18.582;2023-01-29T18:26:17;3.17;87.20